sensor_id;sensor_type;location;lat;lon;timestamp;pressure;altitude;pressure_sealevel;temperature;humidity
68075;BME280;54864;52.002;5.468;2023-06-26T00:01:09;101017.69;;;24.67;61.71
68075;BME280;54864;52.002;5.468;2023-06-26T00:02:30;101015.81;;;24.68;61.40
68075;BME280;54864;52.002;5.468;2023-06-26T00:03:51;101021.53;;;24.65;61.69
68075;BME280;54864;52.002;5.468;2023-06-26T00:05:11;101020.00;;;24.62;61.91
68075;BME280;54864;52.002;5.468;2023-06-26T00:06:14;101016.91;;;24.57;61.48
68075;BME280;54864;52.002;5.468;2023-06-26T00:07:14;101018.06;;;24.55;61.07
68075;BME280;54864;52.002;5.468;2023-06-26T00:08:35;101015.22;;;24.56;61.32
68075;BME280;54864;52.002;5.468;2023-06-26T00:09:36;101013.38;;;24.57;61.85
68075;BME280;54864;52.002;5.468;2023-06-26T00:10:57;101028.47;;;24.50;61.78
68075;BME280;54864;52.002;5.468;2023-06-26T00:12:00;101019.38;;;24.51;61.85
68075;BME280;54864;52.002;5.468;2023-06-26T00:13:06;101017.69;;;24.50;61.74
68075;BME280;54864;52.002;5.468;2023-06-26T00:14:26;101028.78;;;24.47;61.81
68075;BME280;54864;52.002;5.468;2023-06-26T00:15:27;101017.31;;;24.45;61.69
68075;BME280;54864;52.002;5.468;2023-06-26T00:16:32;101025.56;;;24.43;61.90
68075;BME280;54864;52.002;5.468;2023-06-26T00:17:33;101021.63;;;24.38;61.96
68075;BME280;54864;52.002;5.468;2023-06-26T00:18:57;101028.72;;;24.39;62.30
68075;BME280;54864;52.002;5.468;2023-06-26T00:20:17;101029.91;;;24.26;62.26
68075;BME280;54864;52.002;5.468;2023-06-26T00:21:19;101023.28;;;24.21;62.57
68075;BME280;54864;52.002;5.468;2023-06-26T00:22:38;101026.94;;;24.29;62.58
68075;BME280;54864;52.002;5.468;2023-06-26T00:23:41;101021.59;;;24.20;62.50
68075;BME280;54864;52.002;5.468;2023-06-26T00:24:42;101027.81;;;24.20;63.03
68075;BME280;54864;52.002;5.468;2023-06-26T00:25:45;101028.81;;;24.19;63.61
68075;BME280;54864;52.002;5.468;2023-06-26T00:26:46;101023.59;;;24.18;62.97
68075;BME280;54864;52.002;5.468;2023-06-26T00:28:09;101026.13;;;24.19;64.17
68075;BME280;54864;52.002;5.468;2023-06-26T00:29:28;101026.44;;;24.16;63.98
68075;BME280;54864;52.002;5.468;2023-06-26T00:30:49;101026.13;;;24.19;63.46
68075;BME280;54864;52.002;5.468;2023-06-26T00:31:50;101017.19;;;24.19;63.55
68075;BME280;54864;52.002;5.468;2023-06-26T00:32:51;101012.81;;;24.18;63.35
68075;BME280;54864;52.002;5.468;2023-06-26T00:33:52;101011.97;;;24.17;63.34
68075;BME280;54864;52.002;5.468;2023-06-26T00:34:54;101002.19;;;24.16;62.92
68075;BME280;54864;52.002;5.468;2023-06-26T00:35:54;101005.03;;;24.15;63.76
68075;BME280;54864;52.002;5.468;2023-06-26T00:36:56;101006.41;;;24.19;63.46
68075;BME280;54864;52.002;5.468;2023-06-26T00:38:06;101003.72;;;24.19;63.63
68075;BME280;54864;52.002;5.468;2023-06-26T00:39:26;100996.50;;;24.19;63.63
68075;BME280;54864;52.002;5.468;2023-06-26T00:40:46;100996.19;;;24.22;63.68
68075;BME280;54864;52.002;5.468;2023-06-26T00:41:50;100991.78;;;24.21;63.53
68075;BME280;54864;52.002;5.468;2023-06-26T00:42:51;100993.50;;;24.22;63.30
68075;BME280;54864;52.002;5.468;2023-06-26T00:43:54;100994.19;;;24.24;63.47
68075;BME280;54864;52.002;5.468;2023-06-26T00:44:55;100988.94;;;24.23;62.25
68075;BME280;54864;52.002;5.468;2023-06-26T00:45:56;100999.72;;;24.23;62.69
68075;BME280;54864;52.002;5.468;2023-06-26T00:46:57;100998.72;;;24.24;63.38
68075;BME280;54864;52.002;5.468;2023-06-26T00:48:18;100998.56;;;24.25;63.05
68075;BME280;54864;52.002;5.468;2023-06-26T00:49:37;100998.88;;;24.22;63.55
68075;BME280;54864;52.002;5.468;2023-06-26T00:50:40;100993.63;;;24.21;63.65
68075;BME280;54864;52.002;5.468;2023-06-26T00:51:45;100991.09;;;24.19;63.33
68075;BME280;54864;52.002;5.468;2023-06-26T00:52:46;100991.94;;;24.20;62.72
68075;BME280;54864;52.002;5.468;2023-06-26T00:53:47;100996.50;;;24.19;63.55
68075;BME280;54864;52.002;5.468;2023-06-26T00:55:08;100997.78;;;24.15;63.06
68075;BME280;54864;52.002;5.468;2023-06-26T00:56:10;100996.09;;;24.14;63.38
68075;BME280;54864;52.002;5.468;2023-06-26T00:57:12;100996.94;;;24.15;63.56
68075;BME280;54864;52.002;5.468;2023-06-26T00:58:32;101004.88;;;24.16;63.73
68075;BME280;54864;52.002;5.468;2023-06-26T00:59:35;100999.50;;;24.16;63.41
68075;BME280;54864;52.002;5.468;2023-06-26T01:00:56;100996.41;;;24.11;63.78
68075;BME280;54864;52.002;5.468;2023-06-26T01:02:01;101000.78;;;24.12;63.72
68075;BME280;54864;52.002;5.468;2023-06-26T01:03:07;101006.34;;;24.11;63.51
68075;BME280;54864;52.002;5.468;2023-06-26T01:04:28;101009.03;;;24.11;63.39
68075;BME280;54864;52.002;5.468;2023-06-26T01:05:32;101006.50;;;24.09;63.49
68075;BME280;54864;52.002;5.468;2023-06-26T01:06:47;101002.53;;;24.03;63.85
68075;BME280;54864;52.002;5.468;2023-06-26T01:08:09;101001.53;;;24.04;63.37
68075;BME280;54864;52.002;5.468;2023-06-26T01:09:23;101009.13;;;23.91;64.04
68075;BME280;54864;52.002;5.468;2023-06-26T01:10:43;101013.91;;;23.97;63.80
68075;BME280;54864;52.002;5.468;2023-06-26T01:11:45;101013.53;;;23.92;64.09
68075;BME280;54864;52.002;5.468;2023-06-26T01:13:05;101016.38;;;23.91;64.01
68075;BME280;54864;52.002;5.468;2023-06-26T01:14:25;101020.34;;;23.87;64.33
68075;BME280;54864;52.002;5.468;2023-06-26T01:15:41;101023.91;;;23.87;64.39
68075;BME280;54864;52.002;5.468;2023-06-26T01:16:45;101020.66;;;23.84;63.83
68075;BME280;54864;52.002;5.468;2023-06-26T01:18:08;101023.56;;;23.73;63.87
68075;BME280;54864;52.002;5.468;2023-06-26T01:19:13;101022.75;;;23.62;62.56
68075;BME280;54864;52.002;5.468;2023-06-26T01:20:35;101024.91;;;23.59;63.66
68075;BME280;54864;52.002;5.468;2023-06-26T01:21:43;101024.91;;;23.59;63.63
68075;BME280;54864;52.002;5.468;2023-06-26T01:22:48;101023.19;;;23.58;62.09
68075;BME280;54864;52.002;5.468;2023-06-26T01:24:04;101028.44;;;23.59;61.94
68075;BME280;54864;52.002;5.468;2023-06-26T01:25:30;101024.44;;;23.63;61.79
68075;BME280;54864;52.002;5.468;2023-06-26T01:26:40;101027.00;;;23.65;61.65
68075;BME280;54864;52.002;5.468;2023-06-26T01:27:43;101033.19;;;23.75;62.30
68075;BME280;54864;52.002;5.468;2023-06-26T01:28:46;101026.78;;;23.76;61.07
68075;BME280;54864;52.002;5.468;2023-06-26T01:30:07;101027.19;;;23.81;60.39
68075;BME280;54864;52.002;5.468;2023-06-26T01:31:28;101035.28;;;23.81;59.23
68075;BME280;54864;52.002;5.468;2023-06-26T01:32:32;101030.94;;;23.70;57.67
68075;BME280;54864;52.002;5.468;2023-06-26T01:33:52;101039.50;;;23.84;60.22
68075;BME280;54864;52.002;5.468;2023-06-26T01:35:07;101041.16;;;23.94;59.76
68075;BME280;54864;52.002;5.468;2023-06-26T01:36:09;101043.38;;;23.99;59.79
68075;BME280;54864;52.002;5.468;2023-06-26T01:37:11;101046.22;;;23.97;57.51
68075;BME280;54864;52.002;5.468;2023-06-26T01:38:30;101050.88;;;24.05;58.19
68075;BME280;54864;52.002;5.468;2023-06-26T01:39:51;101055.47;;;23.95;57.56
68075;BME280;54864;52.002;5.468;2023-06-26T01:40:59;101048.06;;;23.97;57.51
68075;BME280;54864;52.002;5.468;2023-06-26T01:42:20;101054.28;;;24.07;58.32
68075;BME280;54864;52.002;5.468;2023-06-26T01:43:46;101051.69;;;24.15;57.34
68075;BME280;54864;52.002;5.468;2023-06-26T01:45:14;101046.75;;;23.83;57.02
68075;BME280;54864;52.002;5.468;2023-06-26T01:46:20;101053.53;;;23.87;57.26
68075;BME280;54864;52.002;5.468;2023-06-26T01:47:26;101054.66;;;23.85;57.08
68075;BME280;54864;52.002;5.468;2023-06-26T01:48:33;101063.44;;;23.87;57.29
68075;BME280;54864;52.002;5.468;2023-06-26T01:49:43;101065.38;;;23.94;57.50
68075;BME280;54864;52.002;5.468;2023-06-26T01:51:03;101060.59;;;23.88;57.31
68075;BME280;54864;52.002;5.468;2023-06-26T01:52:27;101057.81;;;23.80;58.10
68075;BME280;54864;52.002;5.468;2023-06-26T01:53:35;101060.50;;;23.80;58.02
68075;BME280;54864;52.002;5.468;2023-06-26T01:54:58;101061.06;;;23.84;57.95
68075;BME280;54864;52.002;5.468;2023-06-26T01:56:10;101062.06;;;23.83;58.24
68075;BME280;54864;52.002;5.468;2023-06-26T01:57:17;101065.19;;;23.78;58.53
68075;BME280;54864;52.002;5.468;2023-06-26T01:58:41;101065.19;;;23.78;58.26
68075;BME280;54864;52.002;5.468;2023-06-26T01:59:43;101065.94;;;23.70;58.12
68075;BME280;54864;52.002;5.468;2023-06-26T02:00:47;101061.53;;;23.69;58.41
68075;BME280;54864;52.002;5.468;2023-06-26T02:02:07;101066.03;;;23.79;58.55
68075;BME280;54864;52.002;5.468;2023-06-26T02:03:28;101071.97;;;23.82;58.49
68075;BME280;54864;52.002;5.468;2023-06-26T02:04:47;101064.53;;;23.66;58.60
68075;BME280;54864;52.002;5.468;2023-06-26T02:05:49;101067.47;;;23.73;58.77
68075;BME280;54864;52.002;5.468;2023-06-26T02:06:50;101071.47;;;23.69;58.63
68075;BME280;54864;52.002;5.468;2023-06-26T02:07:52;101071.22;;;23.53;58.96
68075;BME280;54864;52.002;5.468;2023-06-26T02:08:52;101069.09;;;23.56;59.25
68075;BME280;54864;52.002;5.468;2023-06-26T02:09:56;101058.19;;;23.48;59.31
68075;BME280;54864;52.002;5.468;2023-06-26T02:10:57;101067.81;;;23.51;59.29
68075;BME280;54864;52.002;5.468;2023-06-26T02:11:59;101062.44;;;23.51;59.48
68075;BME280;54864;52.002;5.468;2023-06-26T02:13:18;101065.97;;;23.51;60.30
68075;BME280;54864;52.002;5.468;2023-06-26T02:14:22;101071.09;;;23.35;60.07
68075;BME280;54864;52.002;5.468;2023-06-26T02:15:41;101056.56;;;23.18;60.34
68075;BME280;54864;52.002;5.468;2023-06-26T02:16:43;101062.81;;;23.09;60.81
68075;BME280;54864;52.002;5.468;2023-06-26T02:18:02;101063.78;;;23.18;61.27
68075;BME280;54864;52.002;5.468;2023-06-26T02:19:18;101058.56;;;23.06;61.25
68075;BME280;54864;52.002;5.468;2023-06-26T02:20:21;101057.72;;;23.06;61.58
68075;BME280;54864;52.002;5.468;2023-06-26T02:21:32;101058.13;;;23.11;61.99
68075;BME280;54864;52.002;5.468;2023-06-26T02:22:33;101052.63;;;23.13;61.60
68075;BME280;54864;52.002;5.468;2023-06-26T02:23:53;101066.22;;;23.11;61.10
68075;BME280;54864;52.002;5.468;2023-06-26T02:25:14;101059.84;;;23.12;61.61
68075;BME280;54864;52.002;5.468;2023-06-26T02:26:19;101058.69;;;23.15;62.41
68075;BME280;54864;52.002;5.468;2023-06-26T02:27:39;101063.19;;;23.24;62.19
68075;BME280;54864;52.002;5.468;2023-06-26T02:28:42;101063.34;;;23.22;62.11
68075;BME280;54864;52.002;5.468;2023-06-26T02:29:44;101064.38;;;23.02;62.31
68075;BME280;54864;52.002;5.468;2023-06-26T02:30:46;101057.72;;;23.06;61.77
68075;BME280;54864;52.002;5.468;2023-06-26T02:31:47;101065.81;;;22.96;62.86
68075;BME280;54864;52.002;5.468;2023-06-26T02:33:08;101061.84;;;23.00;62.64
68075;BME280;54864;52.002;5.468;2023-06-26T02:34:09;101065.94;;;23.04;62.27
68075;BME280;54864;52.002;5.468;2023-06-26T02:35:29;101060.41;;;23.06;61.84
68075;BME280;54864;52.002;5.468;2023-06-26T02:36:35;101068.63;;;23.04;62.17
68075;BME280;54864;52.002;5.468;2023-06-26T02:37:36;101063.25;;;23.04;62.50
68075;BME280;54864;52.002;5.468;2023-06-26T02:38:57;101061.13;;;23.08;63.02
68075;BME280;54864;52.002;5.468;2023-06-26T02:40:16;101076.97;;;23.01;62.69
68075;BME280;54864;52.002;5.468;2023-06-26T02:41:18;101077.13;;;23.00;62.91
68075;BME280;54864;52.002;5.468;2023-06-26T02:42:37;101070.75;;;22.91;63.05
68075;BME280;54864;52.002;5.468;2023-06-26T02:43:39;101076.84;;;22.93;63.02
68075;BME280;54864;52.002;5.468;2023-06-26T02:45:00;101085.50;;;22.87;63.52
68075;BME280;54864;52.002;5.468;2023-06-26T02:46:07;101078.13;;;22.89;63.06
68075;BME280;54864;52.002;5.468;2023-06-26T02:47:14;101083.66;;;22.88;63.42
68075;BME280;54864;52.002;5.468;2023-06-26T02:48:34;101081.66;;;22.90;63.57
68075;BME280;54864;52.002;5.468;2023-06-26T02:49:35;101074.88;;;22.86;63.57
68075;BME280;54864;52.002;5.468;2023-06-26T02:50:52;101076.81;;;22.64;64.04
68075;BME280;54864;52.002;5.468;2023-06-26T02:51:52;101079.25;;;22.77;64.39
68075;BME280;54864;52.002;5.468;2023-06-26T02:52:54;101081.38;;;22.83;64.23
68075;BME280;54864;52.002;5.468;2023-06-26T02:53:55;101082.63;;;22.79;63.70
68075;BME280;54864;52.002;5.468;2023-06-26T02:54:56;101087.75;;;22.82;63.69
68075;BME280;54864;52.002;5.468;2023-06-26T02:55:57;101082.31;;;22.72;63.96
68075;BME280;54864;52.002;5.468;2023-06-26T02:57:18;101085.16;;;22.71;64.57
68075;BME280;54864;52.002;5.468;2023-06-26T02:58:37;101087.00;;;22.70;64.77
68075;BME280;54864;52.002;5.468;2023-06-26T02:59:58;101085.28;;;22.60;64.36
68075;BME280;54864;52.002;5.468;2023-06-26T03:01:01;101082.19;;;22.64;64.51
68075;BME280;54864;52.002;5.468;2023-06-26T03:02:02;101082.19;;;22.64;65.22
68075;BME280;54864;52.002;5.468;2023-06-26T03:03:18;101084.31;;;22.61;65.03
68075;BME280;54864;52.002;5.468;2023-06-26T03:04:19;101086.56;;;22.65;65.60
68075;BME280;54864;52.002;5.468;2023-06-26T03:05:40;101089.53;;;22.62;64.57
68075;BME280;54864;52.002;5.468;2023-06-26T03:06:42;101081.19;;;22.65;65.08
68075;BME280;54864;52.002;5.468;2023-06-26T03:08:02;101090.09;;;22.66;64.76
68075;BME280;54864;52.002;5.468;2023-06-26T03:09:22;101089.97;;;22.58;65.90
68075;BME280;54864;52.002;5.468;2023-06-26T03:10:23;101088.09;;;22.49;65.58
68075;BME280;54864;52.002;5.468;2023-06-26T03:11:31;101101.41;;;22.50;65.83
68075;BME280;54864;52.002;5.468;2023-06-26T03:12:31;101102.53;;;22.57;65.61
68075;BME280;54864;52.002;5.468;2023-06-26T03:13:52;101098.44;;;22.53;65.32
68075;BME280;54864;52.002;5.468;2023-06-26T03:15:12;101097.03;;;22.49;65.66
68075;BME280;54864;52.002;5.468;2023-06-26T03:16:18;101087.81;;;22.52;65.76
68075;BME280;54864;52.002;5.468;2023-06-26T03:17:37;101107.91;;;22.57;65.97
68075;BME280;54864;52.002;5.468;2023-06-26T03:18:39;101103.69;;;22.55;65.86
68075;BME280;54864;52.002;5.468;2023-06-26T03:19:58;101101.69;;;22.57;65.66
68075;BME280;54864;52.002;5.468;2023-06-26T03:21:03;101100.13;;;22.54;66.00
68075;BME280;54864;52.002;5.468;2023-06-26T03:22:10;101101.69;;;22.57;65.76
68075;BME280;54864;52.002;5.468;2023-06-26T03:23:30;101107.78;;;22.49;66.24
68075;BME280;54864;52.002;5.468;2023-06-26T03:24:32;101099.72;;;22.49;66.34
68075;BME280;54864;52.002;5.468;2023-06-26T03:25:53;101107.78;;;22.49;66.28
68075;BME280;54864;52.002;5.468;2023-06-26T03:26:54;101105.78;;;22.51;66.34
68075;BME280;54864;52.002;5.468;2023-06-26T03:28:14;101098.59;;;22.52;66.78
68075;BME280;54864;52.002;5.468;2023-06-26T03:29:15;101101.00;;;22.55;66.50
68075;BME280;54864;52.002;5.468;2023-06-26T03:30:34;101095.88;;;22.52;66.26
68075;BME280;54864;52.002;5.468;2023-06-26T03:31:37;101101.25;;;22.52;66.10
68075;BME280;54864;52.002;5.468;2023-06-26T03:32:57;101096.31;;;22.47;66.97
68075;BME280;54864;52.002;5.468;2023-06-26T03:34:17;101098.28;;;22.55;67.04
68075;BME280;54864;52.002;5.468;2023-06-26T03:35:19;101106.38;;;22.55;66.69
68075;BME280;54864;52.002;5.468;2023-06-26T03:36:38;101103.53;;;22.56;66.61
68075;BME280;54864;52.002;5.468;2023-06-26T03:37:40;101099.16;;;22.55;67.10
68075;BME280;54864;52.002;5.468;2023-06-26T03:38:59;101095.88;;;22.52;66.83
68075;BME280;54864;52.002;5.468;2023-06-26T03:40:01;101101.97;;;22.54;66.79
68075;BME280;54864;52.002;5.468;2023-06-26T03:41:22;101108.63;;;22.50;67.00
68075;BME280;54864;52.002;5.468;2023-06-26T03:42:42;101097.00;;;22.39;67.64
68075;BME280;54864;52.002;5.468;2023-06-26T03:43:43;101102.69;;;22.46;67.11
68075;BME280;54864;52.002;5.468;2023-06-26T03:44:44;101100.25;;;22.43;67.65
68075;BME280;54864;52.002;5.468;2023-06-26T03:45:45;101099.56;;;22.51;67.54
68075;BME280;54864;52.002;5.468;2023-06-26T03:47:07;101104.38;;;22.47;67.57
68075;BME280;54864;52.002;5.468;2023-06-26T03:48:24;101107.91;;;22.57;67.48
68075;BME280;54864;52.002;5.468;2023-06-26T03:49:26;101105.22;;;22.57;66.88
68075;BME280;54864;52.002;5.468;2023-06-26T03:50:45;101113.59;;;22.64;67.46
68075;BME280;54864;52.002;5.468;2023-06-26T03:51:53;101110.03;;;22.63;66.85
68075;BME280;54864;52.002;5.468;2023-06-26T03:53:12;101109.75;;;22.66;67.05
68075;BME280;54864;52.002;5.468;2023-06-26T03:54:14;101113.59;;;22.64;67.34
68075;BME280;54864;52.002;5.468;2023-06-26T03:55:33;101116.28;;;22.64;67.33
68075;BME280;54864;52.002;5.468;2023-06-26T03:56:36;101113.72;;;22.53;67.11
68075;BME280;54864;52.002;5.468;2023-06-26T03:57:55;101118.81;;;22.56;67.48
68075;BME280;54864;52.002;5.468;2023-06-26T03:59:03;101122.78;;;22.61;67.31
68075;BME280;54864;52.002;5.468;2023-06-26T04:00:13;101126.44;;;22.60;67.57
68075;BME280;54864;52.002;5.468;2023-06-26T04:01:35;101123.91;;;22.68;66.82
68075;BME280;54864;52.002;5.468;2023-06-26T04:02:39;101128.00;;;22.63;66.75
68075;BME280;54864;52.002;5.468;2023-06-26T04:03:39;101124.34;;;22.64;66.71
68075;BME280;54864;52.002;5.468;2023-06-26T04:04:41;101127.72;;;22.66;67.46
68075;BME280;54864;52.002;5.468;2023-06-26T04:06:00;101125.75;;;22.68;67.74
68075;BME280;54864;52.002;5.468;2023-06-26T04:07:21;101132.97;;;22.67;67.13
68075;BME280;54864;52.002;5.468;2023-06-26T04:08:28;101141.44;;;22.63;67.40
68075;BME280;54864;52.002;5.468;2023-06-26T04:09:48;101136.38;;;22.69;67.47
68075;BME280;54864;52.002;5.468;2023-06-26T04:11:08;101143.44;;;22.61;67.68
68075;BME280;54864;52.002;5.468;2023-06-26T04:12:28;101142.00;;;22.57;67.56
68075;BME280;54864;52.002;5.468;2023-06-26T04:13:30;101148.50;;;22.54;68.13
68075;BME280;54864;52.002;5.468;2023-06-26T04:14:49;101148.22;;;22.57;67.88
68075;BME280;54864;52.002;5.468;2023-06-26T04:16:09;101154.31;;;22.50;68.27
68075;BME280;54864;52.002;5.468;2023-06-26T04:17:12;101148.94;;;22.59;68.34
68075;BME280;54864;52.002;5.468;2023-06-26T04:18:20;101149.63;;;22.52;68.63
68075;BME280;54864;52.002;5.468;2023-06-26T04:19:22;101147.25;;;22.58;68.70
68075;BME280;54864;52.002;5.468;2023-06-26T04:20:42;101154.72;;;22.45;68.11
68075;BME280;54864;52.002;5.468;2023-06-26T04:22:23;101148.22;;;22.57;68.14
68075;BME280;54864;52.002;5.468;2023-06-26T04:23:25;101141.28;;;22.55;68.17
68075;BME280;54864;52.002;5.468;2023-06-26T04:24:26;101144.13;;;22.53;67.93
68075;BME280;54864;52.002;5.468;2023-06-26T04:25:28;101139.16;;;22.39;67.83
68075;BME280;54864;52.002;5.468;2023-06-26T04:26:48;101149.75;;;22.40;68.24
68075;BME280;54864;52.002;5.468;2023-06-26T04:28:08;101150.19;;;22.45;68.77
68075;BME280;54864;52.002;5.468;2023-06-26T04:29:09;101160.53;;;22.50;68.39
68075;BME280;54864;52.002;5.468;2023-06-26T04:30:30;101155.97;;;22.41;68.34
68075;BME280;54864;52.002;5.468;2023-06-26T04:31:31;101166.03;;;22.49;68.09
68075;BME280;54864;52.002;5.468;2023-06-26T04:32:32;101159.84;;;22.58;68.27
68075;BME280;54864;52.002;5.468;2023-06-26T04:33:34;101160.53;;;22.60;67.79
68075;BME280;54864;52.002;5.468;2023-06-26T04:34:36;101163.47;;;22.37;67.34
68075;BME280;54864;52.002;5.468;2023-06-26T04:35:41;101162.63;;;22.46;67.28
68075;BME280;54864;52.002;5.468;2023-06-26T04:36:53;101158.56;;;22.52;67.32
68075;BME280;54864;52.002;5.468;2023-06-26T04:38:02;101158.13;;;22.57;67.52
68075;BME280;54864;52.002;5.468;2023-06-26T04:39:21;101158.38;;;22.44;67.22
68075;BME280;54864;52.002;5.468;2023-06-26T04:40:23;101153.31;;;22.51;67.63
68075;BME280;54864;52.002;5.468;2023-06-26T04:41:44;101169.16;;;22.54;67.13
68075;BME280;54864;52.002;5.468;2023-06-26T04:42:46;101166.63;;;22.62;67.07
68075;BME280;54864;52.002;5.468;2023-06-26T04:43:58;101162.81;;;22.55;66.96
68075;BME280;54864;52.002;5.468;2023-06-26T04:45:12;101159.13;;;22.56;66.67
68075;BME280;54864;52.002;5.468;2023-06-26T04:46:14;101164.34;;;22.57;66.75
68075;BME280;54864;52.002;5.468;2023-06-26T04:47:23;101170.75;;;22.66;67.59
68075;BME280;54864;52.002;5.468;2023-06-26T04:48:25;101166.03;;;22.49;66.61
68075;BME280;54864;52.002;5.468;2023-06-26T04:49:46;101160.66;;;22.49;66.19
68075;BME280;54864;52.002;5.468;2023-06-26T04:50:48;101167.34;;;22.64;67.12
68075;BME280;54864;52.002;5.468;2023-06-26T04:51:54;101168.63;;;22.69;67.07
68075;BME280;54864;52.002;5.468;2023-06-26T04:52:56;101172.31;;;22.68;67.13
68075;BME280;54864;52.002;5.468;2023-06-26T04:53:58;101168.75;;;22.58;65.54
68075;BME280;54864;52.002;5.468;2023-06-26T04:55:00;101178.22;;;22.62;65.78
68075;BME280;54864;52.002;5.468;2023-06-26T04:56:01;101178.38;;;22.61;64.98
68075;BME280;54864;52.002;5.468;2023-06-26T04:57:05;101187.84;;;22.65;64.56
68075;BME280;54864;52.002;5.468;2023-06-26T04:58:25;101186.13;;;22.54;64.51
68075;BME280;54864;52.002;5.468;2023-06-26T04:59:45;101181.88;;;22.52;65.08
68075;BME280;54864;52.002;5.468;2023-06-26T05:00:47;101184.72;;;22.60;64.69
68075;BME280;54864;52.002;5.468;2023-06-26T05:01:49;101188.53;;;22.57;64.56
68075;BME280;54864;52.002;5.468;2023-06-26T05:02:50;101187.38;;;22.40;63.88
68075;BME280;54864;52.002;5.468;2023-06-26T05:03:59;101185.81;;;22.38;64.41
68075;BME280;54864;52.002;5.468;2023-06-26T05:04:59;101188.50;;;22.38;62.99
68075;BME280;54864;52.002;5.468;2023-06-26T05:06:01;101192.03;;;22.38;63.51
68075;BME280;54864;52.002;5.468;2023-06-26T05:07:03;101193.91;;;22.48;64.85
68075;BME280;54864;52.002;5.468;2023-06-26T05:08:24;101194.63;;;22.50;64.13
68075;BME280;54864;52.002;5.468;2023-06-26T05:09:28;101199.13;;;22.49;63.85
68075;BME280;54864;52.002;5.468;2023-06-26T05:10:30;101198.72;;;22.54;64.80
68075;BME280;54864;52.002;5.468;2023-06-26T05:11:32;101203.97;;;22.55;63.49
68075;BME280;54864;52.002;5.468;2023-06-26T05:12:51;101203.25;;;22.53;62.66
68075;BME280;54864;52.002;5.468;2023-06-26T05:14:11;101207.78;;;22.53;62.63
68075;BME280;54864;52.002;5.468;2023-06-26T05:15:14;101194.19;;;22.44;62.13
68075;BME280;54864;52.002;5.468;2023-06-26T05:16:15;101202.53;;;22.51;63.10
68075;BME280;54864;52.002;5.468;2023-06-26T05:17:19;101200.25;;;22.46;61.76
68075;BME280;54864;52.002;5.468;2023-06-26T05:18:39;101204.19;;;22.33;62.63
68075;BME280;54864;52.002;5.468;2023-06-26T05:19:41;101210.84;;;22.38;62.58
68075;BME280;54864;52.002;5.468;2023-06-26T05:20:43;101209.75;;;22.51;62.95
68075;BME280;54864;52.002;5.468;2023-06-26T05:21:45;101205.81;;;22.55;62.67
68075;BME280;54864;52.002;5.468;2023-06-26T05:22:46;101208.75;;;22.52;61.79
68075;BME280;54864;52.002;5.468;2023-06-26T05:24:07;101199.25;;;22.38;60.98
68075;BME280;54864;52.002;5.468;2023-06-26T05:25:31;101209.63;;;22.52;61.78
68075;BME280;54864;52.002;5.468;2023-06-26T05:26:37;101223.50;;;22.57;61.78
68075;BME280;54864;52.002;5.468;2023-06-26T05:27:42;101215.88;;;22.62;62.31
68075;BME280;54864;52.002;5.468;2023-06-26T05:29:02;101221.81;;;22.66;61.74
68075;BME280;54864;52.002;5.468;2023-06-26T05:30:23;101217.00;;;22.60;61.17
68075;BME280;54864;52.002;5.468;2023-06-26T05:31:30;101223.22;;;22.60;60.75
68075;BME280;54864;52.002;5.468;2023-06-26T05:32:34;101226.34;;;22.65;61.34
68075;BME280;54864;52.002;5.468;2023-06-26T05:33:55;101230.53;;;22.49;61.25
68075;BME280;54864;52.002;5.468;2023-06-26T05:35:11;101227.50;;;22.32;60.99
68075;BME280;54864;52.002;5.468;2023-06-26T05:36:13;101236.91;;;22.48;60.92
68075;BME280;54864;52.002;5.468;2023-06-26T05:37:20;101228.34;;;22.33;61.64
68075;BME280;54864;52.002;5.468;2023-06-26T05:38:22;101232.34;;;22.38;61.71
68075;BME280;54864;52.002;5.468;2023-06-26T05:39:42;101235.53;;;22.23;61.12
68075;BME280;54864;52.002;5.468;2023-06-26T05:40:47;101238.84;;;22.36;60.32
68075;BME280;54864;52.002;5.468;2023-06-26T05:42:08;101231.38;;;22.49;60.35
68075;BME280;54864;52.002;5.468;2023-06-26T05:43:29;101232.25;;;22.59;60.60
68075;BME280;54864;52.002;5.468;2023-06-26T05:44:31;101232.00;;;22.62;60.74
68075;BME280;54864;52.002;5.468;2023-06-26T05:45:34;101237.22;;;22.64;60.80
68075;BME280;54864;52.002;5.468;2023-06-26T05:46:36;101241.19;;;22.69;60.50
68075;BME280;54864;52.002;5.468;2023-06-26T05:47:57;101241.59;;;22.55;60.04
68075;BME280;54864;52.002;5.468;2023-06-26T05:49:14;101243.44;;;22.64;59.87
68075;BME280;54864;52.002;5.468;2023-06-26T05:50:22;101246.28;;;22.63;58.67
68075;BME280;54864;52.002;5.468;2023-06-26T05:51:41;101243.03;;;22.69;58.98
68075;BME280;54864;52.002;5.468;2023-06-26T05:52:43;101252.63;;;22.83;59.15
68075;BME280;54864;52.002;5.468;2023-06-26T05:53:45;101241.75;;;22.94;59.77
68075;BME280;54864;52.002;5.468;2023-06-26T05:54:47;101248.97;;;23.03;59.40
68075;BME280;54864;52.002;5.468;2023-06-26T05:56:55;101249.41;;;23.08;58.40
68075;BME280;54864;52.002;5.468;2023-06-26T05:57:57;101245.56;;;23.01;57.64
68075;BME280;54864;52.002;5.468;2023-06-26T05:59:00;101247.81;;;22.86;57.80
68075;BME280;54864;52.002;5.468;2023-06-26T06:00:02;101259.72;;;22.93;58.14
68075;BME280;54864;52.002;5.468;2023-06-26T06:01:10;101260.56;;;23.03;57.70
68075;BME280;54864;52.002;5.468;2023-06-26T06:02:11;101255.78;;;23.07;57.67
68075;BME280;54864;52.002;5.468;2023-06-26T06:03:13;101253.91;;;22.98;57.42
68075;BME280;54864;52.002;5.468;2023-06-26T06:04:33;101257.75;;;23.05;57.49
68075;BME280;54864;52.002;5.468;2023-06-26T06:05:35;101258.19;;;23.20;56.96
68075;BME280;54864;52.002;5.468;2023-06-26T06:06:37;101272.22;;;23.23;57.28
68075;BME280;54864;52.002;5.468;2023-06-26T06:07:38;101273.78;;;23.35;57.07